Time;durP1;ratioP1;P1;durP2;ratioP2;P2;SDS_P1;SDS_P2;PMS_P1;PMS_P2;Temp;Humidity;BMP_temperature;BMP_pressure;BME280_temperature;BME280_humidity;BME280_pressure;Samples;Min_cycle;Max_cycle;Signal;HPM_P1;HPM_P2
2021/08/02 00:03:29;;;;;;;1999.90;999.90;;;;;;;17.47;79.12;100401.38;15647370;28;20100;-63
2021/08/02 00:11:02;;;;;;;1999.90;999.90;;;;;;;17.27;78.80;100384.66;15725481;23;20067;-84
2021/08/02 00:18:36;;;;;;;;;;;;;;;17.44;78.45;100411.44;15752304;28;20546;-83
2021/08/02 00:26:11;;;;;;;1999.90;999.90;;;;;;;17.15;79.25;100413.13;15733994;22;20273;-60
2021/08/02 00:33:45;;;;;;;1999.90;999.90;;;;;;;17.29;78.61;100413.28;15739622;28;20048;-61
2021/08/02 00:41:50;;;;;;;1999.90;999.90;;;;;;;17.41;78.26;100409.41;15738675;28;20052;-62
2021/08/02 00:49:28;;;;;;;1999.90;999.90;;;;;;;17.47;78.41;100402.19;15696514;28;20047;-62
2021/08/02 00:57:05;;;;;;;1999.90;999.90;;;;;;;17.51;78.92;100407.91;15703529;28;20401;-62
2021/08/02 01:04:41;;;;;;;1999.90;999.90;;;;;;;17.46;80.03;100417.50;15703275;28;20153;-62
2021/08/02 01:12:16;;;;;;;1999.90;999.90;;;;;;;17.39;81.21;100427.88;15719849;28;20040;-60
2021/08/02 01:19:51;;;;;;;1999.90;999.90;;;;;;;17.48;81.19;100425.56;15721096;28;20033;-61
2021/08/02 01:27:46;;;;;;;1999.90;999.90;;;;;;;17.60;81.25;100436.56;15755839;28;20559;-60
2021/08/02 01:35:21;;;;;;;1999.90;999.90;;;;;;;17.83;80.41;100450.56;15740084;28;20149;-59
2021/08/02 01:42:57;;;;;;;1999.90;999.90;;;;;;;17.82;80.44;100444.09;15700636;28;20064;-61
2021/08/02 01:50:43;;;;;;;1999.90;999.90;;;;;;;17.87;80.50;100457.03;15730879;28;20040;-58
2021/08/02 01:58:17;;;;;;;1999.90;999.90;;;;;;;17.80;80.77;100454.94;15735212;28;20051;-61
2021/08/02 02:06:14;;;;;;;1999.90;999.90;;;;;;;17.88;80.28;100456.66;15734442;28;20041;-62
2021/08/02 02:13:59;;;;;;;1999.90;999.90;;;;;;;17.89;80.52;100463.91;15717767;28;20051;-60
2021/08/02 02:21:34;;;;;;;1999.90;999.90;;;;;;;17.85;80.80;100467.91;15718211;28;20120;-62
2021/08/02 02:29:17;;;;;;;1999.90;999.90;;;;;;;17.85;80.77;100462.25;15717244;28;20044;-62
2021/08/02 02:36:51;;;;;;;1999.90;999.90;;;;;;;17.86;80.46;100478.81;15716793;28;20319;-60
2021/08/02 02:44:28;;;;;;;1999.90;999.90;;;;;;;17.87;80.17;100483.25;15699794;28;20087;-62
2021/08/02 02:52:02;;;;;;;1999.90;999.90;;;;;;;17.81;80.39;100492.44;15738684;28;20052;-61
2021/08/02 02:59:36;;;;;;;1999.90;999.90;;;;;;;17.99;80.33;100501.91;15745012;28;20436;-62
2021/08/02 03:07:11;;;;;;;1999.90;999.90;;;;;;;17.88;80.75;100510.28;15698696;28;20052;-60
2021/08/02 03:14:48;;;;;;;1999.90;999.90;;;;;;;17.82;80.93;100517.47;15759438;28;20576;-62
2021/08/02 03:22:25;;;;;;;1999.90;999.90;;;;;;;17.84;80.37;100517.09;15725535;28;20070;-62
2021/08/02 03:30:03;;;;;;;1999.90;999.90;;;;;;;18.07;79.65;100534.66;15742296;28;20032;-62
2021/08/02 03:37:38;;;;;;;1999.90;999.90;;;;;;;17.91;79.39;100541.72;15742987;28;20036;-62
2021/08/02 03:45:13;;;;;;;1999.90;999.90;;;;;;;17.87;79.34;100538.88;15723463;28;20140;-62
2021/08/02 03:52:47;;;;;;;1999.90;999.90;;;;;;;17.83;79.08;100535.22;15724392;28;20356;-61
2021/08/02 04:00:22;;;;;;;1999.90;999.90;;;;;;;17.71;80.20;100555.22;15722787;28;20045;-62
2021/08/02 04:07:54;;;;;;;1999.90;999.90;;;;;;;17.90;79.41;100563.50;15740278;28;20075;-62
2021/08/02 04:15:28;;;;;;;1999.90;999.90;;;;;;;17.84;80.08;100582.00;15739782;28;20055;-62
2021/08/02 04:23:00;;;;;;;1999.90;999.90;;;;;;;17.85;79.85;100581.63;15721534;28;20043;-61
2021/08/02 04:30:34;;;;;;;1999.90;999.90;;;;;;;17.82;79.40;100588.03;15738906;28;20493;-60
2021/08/02 04:38:06;;;;;;;1999.90;999.90;;;;;;;17.89;79.90;100602.22;15739126;28;20068;-60
2021/08/02 04:45:39;;;;;;;1999.90;999.90;;;;;;;17.86;79.63;100599.34;15738455;28;20049;-60
2021/08/02 04:53:12;;;;;;;1999.90;999.90;;;;;;;17.82;78.87;100610.63;15703545;28;20119;-60
2021/08/02 05:00:46;;;;;;;1999.90;999.90;;;;;;;17.70;79.15;100618.50;15702823;28;20041;-61
2021/08/02 05:08:18;;;;;;;1999.90;999.90;;;;;;;17.79;79.31;100619.84;15737745;28;20161;-61
2021/08/02 05:15:52;;;;;;;1999.90;999.90;;;;;;;17.90;79.75;100617.13;15719439;28;20121;-59
2021/08/02 05:23:24;;;;;;;1999.90;999.90;;;;;;;18.59;78.72;100625.13;15715800;28;20451;-60
2021/08/02 05:30:58;;;;;;;1999.90;999.90;;;;;;;18.53;77.83;100630.31;15723361;28;20064;-59
2021/08/02 05:38:30;;;;;;;1999.90;999.90;;;;;;;19.07;76.87;100633.59;15736114;28;20056;-60
2021/08/02 05:46:04;;;;;;;1999.90;999.90;;;;;;;18.80;78.01;100647.16;15718553;28;20041;-61
2021/08/02 05:53:36;;;;;;;1999.90;999.90;;;;;;;18.48;77.42;100635.53;15734901;28;20048;-60
2021/08/02 06:01:10;;;;;;;1999.90;999.90;;;;;;;18.18;76.13;100634.41;15717101;28;20102;-61
2021/08/02 06:08:42;;;;;;;1999.90;999.90;;;;;;;18.71;75.78;100653.13;15731693;22;20166;-62
2021/08/02 06:16:20;;;;;;;1999.90;999.90;;;;;;;18.61;75.88;100648.16;15740690;28;20094;-63
2021/08/02 06:23:53;;;;;;;1999.90;999.90;;;;;;;19.20;74.00;100651.91;15721391;28;20515;-63
2021/08/02 06:31:27;;;;;;;1999.90;999.90;;;;;;;19.77;70.35;100655.91;15750758;28;20041;-62
2021/08/02 06:38:59;;;;;;;1999.90;999.90;;;;;;;20.06;69.44;100659.66;15750397;28;20469;-62
2021/08/02 06:46:33;;;;;;;1999.90;999.90;;;;;;;20.12;68.81;100666.59;15744808;28;20409;-67
2021/08/02 06:54:05;;;;;;;1999.90;999.90;;;;;;;19.77;70.28;100675.72;15747647;28;20080;-62
2021/08/02 07:01:39;;;;;;;1999.90;999.90;;;;;;;20.76;66.51;100671.59;15709079;28;20094;-65
2021/08/02 07:09:11;;;;;;;1999.90;999.90;;;;;;;20.63;65.26;100674.00;15683614;28;20056;-65
2021/08/02 07:16:45;;;;;;;1999.90;999.90;;;;;;;19.80;66.31;100685.44;15665769;28;20059;-66
2021/08/02 07:24:17;;;;;;;1999.90;999.90;;;;;;;19.79;62.66;100683.81;15700161;28;20052;-64
2021/08/02 07:31:51;;;;;;;1999.90;999.90;;;;;;;20.63;63.10;100684.53;15726517;28;20056;-63
2021/08/02 07:39:23;;;;;;;1999.90;999.90;;;;;;;21.08;60.58;100685.78;15709308;28;20052;-64
2021/08/02 07:46:56;;;;;;;1999.90;999.90;;;;;;;20.67;60.81;100694.69;15727197;28;20091;-64
2021/08/02 07:54:29;;;;;;;1999.90;999.90;;;;;;;21.76;57.43;100702.75;15727596;28;20090;-64
2021/08/02 08:02:02;;;;;;;1999.90;999.90;;;;;;;21.95;58.23;100695.78;15726630;28;20048;-65
2021/08/02 08:09:35;;;;;;;1999.90;999.90;;;;;;;22.25;56.17;100693.25;15720406;28;20036;-63
2021/08/02 08:17:11;;;;;;;1999.90;999.90;;;;;;;21.52;57.27;100695.91;15736444;28;20513;-64
2021/08/02 08:24:43;;;;;;;1999.90;999.90;;;;;;;20.94;56.15;100694.28;15710003;28;20072;-63
2021/08/02 08:32:17;;;;;;;1999.90;999.90;;;;;;;20.66;59.76;100712.09;15708587;28;20131;-64
2021/08/02 08:39:49;;;;;;;1999.90;999.90;;;;;;;19.78;59.75;100710.50;15731428;28;20080;-63
2021/08/02 08:47:23;;;;;;;1999.90;999.90;;;;;;;21.33;55.36;100714.19;15711482;28;20041;-63
2021/08/02 08:54:55;;;;;;;1999.90;999.90;;;;;;;21.97;53.19;100702.69;15677443;28;20120;-64
2021/08/02 09:02:31;;;;;;;1999.90;999.90;;;;;;;22.85;49.37;100712.03;15718993;28;20120;-64
2021/08/02 09:10:06;;;;;;;1999.90;999.90;;;;;;;24.21;46.79;100707.88;15699202;28;20067;-63
2021/08/02 09:17:41;;;;;;;1999.90;999.90;;;;;;;22.69;47.97;100717.38;15693342;28;20091;-64
2021/08/02 09:25:31;;;;;;;1999.90;999.90;;;;;;;23.32;48.02;100726.69;15687525;28;20051;-64
2021/08/02 09:33:07;;;;;;;1999.90;999.90;;;;;;;23.54;49.65;100730.94;15678808;28;20429;-63
2021/08/02 09:40:44;;;;;;;1999.90;999.90;;;;;;;22.84;48.16;100713.25;15658621;28;20041;-63
2021/08/02 09:48:19;;;;;;;1999.90;999.90;;;;;;;22.94;47.17;100722.94;15687034;28;20063;-63
2021/08/02 09:55:55;;;;;;;1999.90;999.90;;;;;;;22.56;49.65;100713.41;15682459;28;20040;-63
2021/08/02 10:03:34;;;;;;;1999.90;999.90;;;;;;;21.93;49.52;100729.50;15736854;28;20068;-63
2021/08/02 10:11:07;;;;;;;1999.90;999.90;;;;;;;21.86;50.24;100733.16;15686533;28;20527;-64
2021/08/02 10:18:48;;;;;;;1999.90;999.90;;;;;;;21.65;50.67;100736.84;15727855;28;20498;-64
2021/08/02 10:26:24;;;;;;;1999.90;999.90;;;;;;;21.60;50.53;100735.25;15739019;28;20467;-64
2021/08/02 10:33:58;;;;;;;1999.90;999.90;;;;;;;22.42;46.90;100731.34;15667630;28;20508;-65
2021/08/02 10:41:32;;;;;;;1999.90;999.90;;;;;;;22.16;48.44;100744.84;15686049;28;20505;-64
2021/08/02 10:49:11;;;;;;;1999.90;999.90;;;;;;;21.81;50.32;100754.28;15669161;28;20525;-64
2021/08/02 10:56:48;;;;;;;1999.90;999.90;;;;;;;23.18;47.00;100741.03;15687584;28;20136;-64
2021/08/02 11:04:23;;;;;;;1999.90;999.90;;;;;;;22.88;46.30;100736.78;15668541;28;20124;-64
2021/08/02 11:12:03;;;;;;;1999.90;999.90;;;;;;;22.17;46.19;100745.66;15684715;28;20508;-64
2021/08/02 11:19:39;;;;;;;1999.90;999.90;;;;;;;21.63;49.28;100742.13;15685630;28;20056;-64
2021/08/02 11:27:12;;;;;;;1999.90;999.90;;;;;;;23.71;47.17;100746.28;15693424;28;20091;-63
2021/08/02 11:34:52;;;;;;;1999.90;999.90;;;;;;;24.44;46.23;100742.22;15683874;28;20049;-63
2021/08/02 11:42:29;;;;;;;1999.90;999.90;;;;;;;23.89;44.22;100735.50;15683660;28;20455;-64
2021/08/02 11:50:05;;;;;;;1999.90;999.90;;;;;;;25.37;42.08;100738.78;15665731;28;20041;-65
2021/08/02 11:57:37;;;;;;;1999.90;999.90;;;;;;;26.26;38.81;100742.00;15682962;28;20574;-64
2021/08/02 12:05:21;;;;;;;1999.90;999.90;;;;;;;26.06;43.54;100745.69;15664515;28;20394;-64
2021/08/02 12:12:58;;;;;;;1999.90;999.90;;;;;;;26.79;37.65;100732.31;15682415;28;20068;-65
2021/08/02 12:20:40;;;;;;;1999.90;999.90;;;;;;;26.69;35.17;100741.94;15688929;28;20033;-66
2021/08/02 12:46:59;;;;;;;1999.90;999.90;;;;;;;28.25;34.45;100733.47;15712369;28;20101;-63
2021/08/02 13:12:26;;;;;;;1999.90;999.90;;;;;;;27.81;33.45;100738.78;15696232;28;20045;-65
2021/08/02 13:19:58;;;;;;;1999.90;999.90;;;;;;;26.75;36.19;100738.09;15706357;28;20123;-64
2021/08/02 13:27:32;;;;;;;1999.90;999.90;;;;;;;30.11;30.72;100726.91;15717387;28;20142;-65
2021/08/02 13:35:06;;;;;;;1999.90;999.90;;;;;;;27.38;34.76;100737.00;15719455;28;20041;-64
2021/08/02 13:42:40;;;;;;;1999.90;999.90;;;;;;;24.92;38.22;100721.97;15722024;28;20397;-58
2021/08/02 13:50:12;;;;;;;1999.90;999.90;;;;;;;24.43;39.34;100724.28;15740155;28;20524;-64
2021/08/02 13:57:46;;;;;;;;;;;;;;;24.77;39.44;100721.34;15718656;28;20594;-65
2021/08/02 14:05:19;;;;;;;1999.90;999.90;;;;;;;25.10;39.57;100715.97;15661148;28;20007;-64
2021/08/02 14:12:55;;;;;;;1999.90;999.90;;;;;;;24.85;41.59;100712.69;15644406;28;20132;-64
2021/08/02 14:20:28;;;;;;;1999.90;999.90;;;;;;;24.69;40.27;100711.28;15659187;28;20056;-64
2021/08/02 14:28:06;;;;;;;1999.90;999.90;;;;;;;24.33;39.28;100713.03;15659521;28;20600;-64
2021/08/02 14:35:41;;;;;;;1999.90;999.90;;;;;;;24.18;39.08;100709.53;15659666;28;20434;-63
2021/08/02 14:43:19;;;;;;;1999.90;999.90;;;;;;;24.07;39.08;100706.81;15676756;28;20046;-63
2021/08/02 14:50:56;;;;;;;1999.90;999.90;;;;;;;24.08;42.12;100707.63;15685193;28;20480;-63
2021/08/02 14:58:33;;;;;;;1999.90;999.90;;;;;;;23.43;41.04;100710.31;15695334;28;20493;-64
2021/08/02 15:06:07;;;;;;;1999.90;999.90;;;;;;;24.17;40.13;100711.56;15748861;28;20047;-63
2021/08/02 15:13:42;;;;;;;1999.90;999.90;;;;;;;24.35;42.30;100719.09;15730566;28;20123;-63
2021/08/02 15:21:20;;;;;;;1999.90;999.90;;;;;;;24.48;40.19;100717.28;15748123;28;20049;-63
2021/08/02 15:28:56;;;;;;;1999.90;999.90;;;;;;;24.38;40.05;100713.34;15747506;28;20428;-62
2021/08/02 15:36:29;;;;;;;1999.90;999.90;;;;;;;24.22;39.50;100704.59;15729003;28;20041;-63
2021/08/02 15:44:08;;;;;;;1999.90;999.90;;;;;;;24.05;40.67;100714.16;15729222;28;20075;-63
2021/08/02 15:51:51;;;;;;;1999.90;999.90;;;;;;;23.95;40.73;100710.19;15746026;28;20497;-63
2021/08/02 16:07:48;;;;;;;1999.90;999.90;;;;;;;24.27;40.71;100706.13;15665385;28;20047;-64
2021/08/02 16:15:23;;;;;;;1999.90;999.90;;;;;;;23.82;40.14;100700.59;15683563;28;20417;-64
2021/08/02 16:22:57;;;;;;;1999.90;999.90;;;;;;;23.99;41.41;100710.97;15682867;28;20033;-64
2021/08/02 16:30:31;;;;;;;1999.90;999.90;;;;;;;23.98;42.49;100705.72;15665028;28;20040;-64
2021/08/02 16:38:03;;;;;;;1999.90;999.90;;;;;;;24.01;41.21;100710.56;15682768;28;20056;-63
2021/08/02 16:45:37;;;;;;;1999.90;999.90;;;;;;;23.70;40.32;100712.53;15665905;28;20052;-64
2021/08/02 16:53:10;;;;;;;1999.90;999.90;;;;;;;24.02;42.46;100721.53;15682499;28;20124;-64
2021/08/02 17:00:44;;;;;;;1999.90;999.90;;;;;;;24.01;40.77;100722.75;15707023;28;20173;-64
2021/08/02 17:08:17;;;;;;;1999.90;999.90;;;;;;;23.76;40.84;100725.06;15723908;28;20074;-63
2021/08/02 17:15:51;;;;;;;1999.90;999.90;;;;;;;23.28;39.49;100731.63;15724640;28;20481;-64
2021/08/02 17:23:24;;;;;;;1999.90;999.90;;;;;;;23.34;40.52;100729.91;15742038;28;20040;-64
2021/08/02 17:30:58;;;;;;;1999.90;999.90;;;;;;;23.29;41.02;100738.94;15742240;28;20040;-64
2021/08/02 17:38:30;;;;;;;1999.90;999.90;;;;;;;22.80;42.51;100740.88;15741127;28;20460;-64
2021/08/02 17:46:04;;;;;;;1999.90;999.90;;;;;;;22.66;44.64;100747.47;15723240;28;20040;-64
2021/08/02 17:53:37;;;;;;;1999.90;999.90;;;;;;;22.80;45.32;100746.56;15722426;28;20051;-64
2021/08/02 18:01:11;;;;;;;1999.90;999.90;;;;;;;22.70;47.16;100755.97;15692712;28;20071;-64
2021/08/02 18:08:44;;;;;;;1999.90;999.90;;;;;;;22.66;47.79;100758.84;15661156;28;20331;-63
2021/08/02 18:16:18;;;;;;;1999.90;999.90;;;;;;;22.41;48.83;100763.84;15661151;28;20029;-62
2021/08/02 18:23:50;;;;;;;1999.90;999.90;;;;;;;22.19;49.51;100774.47;15691338;28;20211;-64
2021/08/02 18:31:24;;;;;;;1999.90;999.90;;;;;;;21.96;48.46;100791.16;15751621;28;20501;-63
2021/08/02 18:38:56;;;;;;;1999.90;999.90;;;;;;;21.69;49.32;100787.97;15733072;28;20048;-63
2021/08/02 18:46:30;;;;;;;1999.90;999.90;;;;;;;21.54;49.85;100793.66;15733112;28;20063;-63
2021/08/02 18:54:03;;;;;;;1999.90;999.90;;;;;;;21.37;51.32;100796.50;15750939;28;20222;-64
2021/08/02 19:01:37;;;;;;;1999.90;999.90;;;;;;;21.11;53.17;100804.13;15698230;28;20487;-62
2021/08/02 19:09:09;;;;;;;1999.90;999.90;;;;;;;20.78;53.83;100805.28;15653903;28;20446;-64
2021/08/02 19:16:44;;;;;;;1999.90;999.90;;;;;;;20.70;54.21;100814.97;15687534;28;20098;-65
2021/08/02 19:24:17;;;;;;;1999.90;999.90;;;;;;;20.58;54.87;100821.81;15669319;28;20123;-64
2021/08/02 19:31:51;;;;;;;1999.90;999.90;;;;;;;20.39;55.47;100831.41;15667792;28;20094;-64
2021/08/02 19:39:23;;;;;;;1999.90;999.90;;;;;;;20.33;56.03;100841.53;15651581;28;20053;-64
2021/08/02 19:47:00;;;;;;;1999.90;999.90;;;;;;;20.23;56.47;100850.78;15666915;28;20102;-64
2021/08/02 19:54:32;;;;;;;1999.90;999.90;;;;;;;20.08;56.87;100855.50;15685705;28;20457;-64
2021/08/02 20:02:07;;;;;;;1999.90;999.90;;;;;;;20.08;56.73;100866.84;15721297;28;20147;-64
2021/08/02 20:09:40;;;;;;;1999.90;999.90;;;;;;;20.05;58.02;100866.84;15728243;28;20094;-64
2021/08/02 20:17:15;;;;;;;1999.90;999.90;;;;;;;19.86;58.00;100863.06;15711163;28;20129;-64
2021/08/02 20:24:54;;;;;;;1999.90;999.90;;;;;;;19.68;58.41;100869.78;15711438;28;20461;-64
2021/08/02 20:32:31;;;;;;;1999.90;999.90;;;;;;;19.42;58.94;100865.06;15736119;28;20055;-64
2021/08/02 20:40:04;;;;;;;1999.90;999.90;;;;;;;19.22;60.19;100870.94;15731342;28;20532;-63
2021/08/02 20:47:39;;;;;;;1999.90;999.90;;;;;;;19.06;60.58;100872.38;15738336;28;20075;-63
2021/08/02 20:55:12;;;;;;;1999.90;999.90;;;;;;;18.84;60.40;100866.47;15696893;28;20040;-65
2021/08/02 21:02:51;;;;;;;1999.90;999.90;;;;;;;18.74;61.20;100881.28;15730526;28;20579;-61
2021/08/02 21:10:26;;;;;;;1999.90;999.90;;;;;;;18.56;61.86;100883.88;15693725;28;20135;-63
2021/08/02 21:18:01;;;;;;;1999.90;999.90;;;;;;;18.36;62.63;100882.38;15728349;28;20036;-65
2021/08/02 21:25:35;;;;;;;1999.90;999.90;;;;;;;18.21;63.50;100877.69;15726015;28;20421;-62
2021/08/02 21:33:08;;;;;;;;;;;;;;;18.02;64.58;100893.56;15731146;28;20064;-61
2021/08/02 21:40:40;;;;;;;1999.90;999.90;;;;;;;17.85;65.19;100894.91;15736291;28;20564;-62
2021/08/02 21:48:14;;;;;;;1999.90;999.90;;;;;;;17.72;65.72;100909.63;15700349;28;20071;-63
2021/08/02 21:55:46;;;;;;;1999.90;999.90;;;;;;;17.61;65.61;100912.19;15736792;28;20106;-63
2021/08/02 22:03:20;;;;;;;1999.90;999.90;;;;;;;17.42;66.37;100910.25;15716413;28;20137;-62
2021/08/02 22:10:52;;;;;;;1999.90;999.90;;;;;;;17.37;66.42;100921.03;15739661;28;20045;-63
2021/08/02 22:18:26;;;;;;;1999.90;999.90;;;;;;;17.21;67.12;100916.31;15741866;28;20059;-62
2021/08/02 22:25:58;;;;;;;1999.90;999.90;;;;;;;17.13;66.77;100908.91;15741325;28;20243;-63
2021/08/02 22:33:32;;;;;;;1999.90;999.90;;;;;;;17.16;66.29;100918.59;15741486;28;20497;-63
2021/08/02 22:41:06;;;;;;;1999.90;999.90;;;;;;;17.09;66.26;100908.03;15742197;28;20493;-62
2021/08/02 22:48:41;;;;;;;1999.90;999.90;;;;;;;16.96;66.85;100893.25;15758953;28;20056;-64
2021/08/02 22:56:13;;;;;;;1999.90;999.90;;;;;;;16.82;67.70;100909.88;15751547;28;20079;-63
2021/08/02 23:03:47;;;;;;;1999.90;999.90;;;;;;;16.88;67.02;100911.22;15756495;28;20128;-62
2021/08/02 23:11:19;;;;;;;1999.90;999.90;;;;;;;16.82;66.67;100917.53;15727044;28;20079;-62
2021/08/02 23:18:53;;;;;;;1999.90;999.90;;;;;;;16.62;67.85;100919.47;15743133;28;20079;-62
2021/08/02 23:26:25;;;;;;;;;;;;;;;16.67;67.69;100924.81;15708703;28;20045;-63
2021/08/02 23:33:59;;;;;;;1999.90;999.90;;;;;;;16.58;67.66;100924.22;15720491;28;19921;-63
2021/08/02 23:41:33;;;;;;;1999.90;999.90;;;;;;;16.33;68.20;100918.03;15737889;28;20056;-63
2021/08/02 23:49:07;;;;;;;1999.90;999.90;;;;;;;16.32;67.76;100910.75;15744031;28;20049;-63
2021/08/02 23:56:39;;;;;;;1999.90;999.90;;;;;;;16.20;68.86;100905.25;15728624;28;20136;-63
